Shirley, South Carolina
Current Conditions -  °F | °C
As of 7:15 PM on Sunday 25 Jan 2015 (Local Time) from KJYL Reporting Station
Clear Clear  
Wind Chill: 49°   Ceiling: Unl
Heat Index: 49°   Visibility: 10mi
Dew Point: 37°   Wind: 0mph
Humidity: 62%   Direction: NA
Pressure: 29.86"   Gusts: NA
Location:  32.6001°N, 81.2393°W
Report Text: KJYL 260015Z AUTO 00000KT 10SM CLR 10/03 A2986 RMK AO2 T00970027
Loading
Personal Weather Stations






























Interactive Weather Map New forecast layout! Learn more

10-Day Weather Forecast

Advertisements
Track Severe Weather on mobile